sensor_id;sensor_type;location;lat;lon;timestamp;P1;durP1;ratioP1;P2;durP2;ratioP2
58752;SDS011;44525;46.052;13.610;2023-12-20T12:24:34;25.48;;;12.63;;
58752;SDS011;44525;46.052;13.610;2023-12-20T12:26:59;28.80;;;16.65;;
58752;SDS011;44525;46.052;13.610;2023-12-20T12:29:25;35.03;;;19.10;;
58752;SDS011;44525;46.052;13.610;2023-12-20T12:31:50;32.38;;;17.58;;
58752;SDS011;44525;46.052;13.610;2023-12-20T12:34:16;33.95;;;22.20;;
58752;SDS011;44525;46.052;13.610;2023-12-20T12:36:42;20.77;;;13.07;;
58752;SDS011;44525;46.052;13.610;2023-12-20T12:39:08;24.50;;;15.18;;
58752;SDS011;44525;46.052;13.610;2023-12-20T12:41:33;22.48;;;14.02;;
58752;SDS011;44525;46.052;13.610;2023-12-20T12:43:59;27.67;;;17.05;;
58752;SDS011;44525;46.052;13.610;2023-12-20T12:46:24;35.70;;;19.35;;
58752;SDS011;44525;46.052;13.610;2023-12-20T12:48:49;30.52;;;17.95;;
58752;SDS011;44525;46.052;13.610;2023-12-20T12:51:15;29.38;;;18.88;;
58752;SDS011;44525;46.052;13.610;2023-12-20T12:53:41;31.25;;;18.33;;
58752;SDS011;44525;46.052;13.610;2023-12-20T12:56:07;32.88;;;17.05;;
58752;SDS011;44525;46.052;13.610;2023-12-20T12:58:33;25.08;;;13.48;;
58752;SDS011;44525;46.052;13.610;2023-12-20T13:00:58;20.52;;;11.43;;
58752;SDS011;44525;46.052;13.610;2023-12-20T13:03:24;27.25;;;13.38;;
58752;SDS011;44525;46.052;13.610;2023-12-20T13:05:49;23.98;;;13.57;;
58752;SDS011;44525;46.052;13.610;2023-12-20T13:08:15;24.77;;;13.68;;
58752;SDS011;44525;46.052;13.610;2023-12-20T13:10:41;33.97;;;18.13;;
58752;SDS011;44525;46.052;13.610;2023-12-20T13:13:06;34.88;;;20.02;;
58752;SDS011;44525;46.052;13.610;2023-12-20T13:15:32;34.78;;;21.08;;
58752;SDS011;44525;46.052;13.610;2023-12-20T13:17:57;39.25;;;21.08;;
58752;SDS011;44525;46.052;13.610;2023-12-20T13:20:23;39.20;;;20.70;;
58752;SDS011;44525;46.052;13.610;2023-12-20T13:22:48;28.65;;;17.20;;
58752;SDS011;44525;46.052;13.610;2023-12-20T13:25:13;31.33;;;19.02;;
58752;SDS011;44525;46.052;13.610;2023-12-20T13:27:39;33.45;;;18.13;;
58752;SDS011;44525;46.052;13.610;2023-12-20T13:30:05;32.30;;;17.20;;
58752;SDS011;44525;46.052;13.610;2023-12-20T13:32:30;31.10;;;17.02;;
58752;SDS011;44525;46.052;13.610;2023-12-20T13:34:56;32.17;;;18.08;;
58752;SDS011;44525;46.052;13.610;2023-12-20T13:37:21;25.80;;;15.93;;
58752;SDS011;44525;46.052;13.610;2023-12-20T13:39:47;27.50;;;17.15;;
58752;SDS011;44525;46.052;13.610;2023-12-20T13:42:13;34.63;;;20.17;;
58752;SDS011;44525;46.052;13.610;2023-12-20T13:44:39;33.30;;;20.55;;
58752;SDS011;44525;46.052;13.610;2023-12-20T13:47:04;33.00;;;20.90;;
58752;SDS011;44525;46.052;13.610;2023-12-20T13:49:31;39.03;;;22.10;;
58752;SDS011;44525;46.052;13.610;2023-12-20T13:51:57;36.70;;;21.75;;
58752;SDS011;44525;46.052;13.610;2023-12-20T13:54:23;33.38;;;19.88;;
58752;SDS011;44525;46.052;13.610;2023-12-20T13:56:49;26.95;;;15.65;;
58752;SDS011;44525;46.052;13.610;2023-12-20T13:59:15;22.98;;;13.55;;
58752;SDS011;44525;46.052;13.610;2023-12-20T14:01:41;74.38;;;46.35;;
58752;SDS011;44525;46.052;13.610;2023-12-20T14:04:06;44.78;;;29.33;;
58752;SDS011;44525;46.052;13.610;2023-12-20T14:06:32;36.60;;;24.23;;
58752;SDS011;44525;46.052;13.610;2023-12-20T14:08:58;32.17;;;21.60;;
58752;SDS011;44525;46.052;13.610;2023-12-20T14:11:27;32.78;;;20.90;;
58752;SDS011;44525;46.052;13.610;2023-12-20T14:13:52;34.42;;;22.77;;
58752;SDS011;44525;46.052;13.610;2023-12-20T14:16:22;31.60;;;19.45;;
58752;SDS011;44525;46.052;13.610;2023-12-20T14:18:48;77.60;;;41.38;;
58752;SDS011;44525;46.052;13.610;2023-12-20T14:21:14;63.10;;;34.28;;
58752;SDS011;44525;46.052;13.610;2023-12-20T14:23:39;36.10;;;23.33;;
58752;SDS011;44525;46.052;13.610;2023-12-20T14:26:04;33.90;;;21.92;;
58752;SDS011;44525;46.052;13.610;2023-12-20T14:28:30;40.00;;;24.63;;
58752;SDS011;44525;46.052;13.610;2023-12-20T14:30:55;48.20;;;28.10;;
58752;SDS011;44525;46.052;13.610;2023-12-20T14:33:21;45.60;;;28.67;;
58752;SDS011;44525;46.052;13.610;2023-12-20T14:35:47;47.28;;;28.40;;
58752;SDS011;44525;46.052;13.610;2023-12-20T14:38:12;47.55;;;29.60;;
58752;SDS011;44525;46.052;13.610;2023-12-20T14:40:40;38.38;;;24.65;;
58752;SDS011;44525;46.052;13.610;2023-12-20T14:43:06;39.55;;;24.92;;
58752;SDS011;44525;46.052;13.610;2023-12-20T14:45:31;38.35;;;22.25;;
58752;SDS011;44525;46.052;13.610;2023-12-20T14:47:57;43.38;;;24.58;;
58752;SDS011;44525;46.052;13.610;2023-12-20T14:50:23;40.90;;;26.30;;
58752;SDS011;44525;46.052;13.610;2023-12-20T14:52:49;32.28;;;21.00;;
58752;SDS011;44525;46.052;13.610;2023-12-20T14:55:14;35.35;;;24.33;;
58752;SDS011;44525;46.052;13.610;2023-12-20T14:57:40;24.23;;;15.30;;
58752;SDS011;44525;46.052;13.610;2023-12-20T15:00:06;27.23;;;17.48;;
58752;SDS011;44525;46.052;13.610;2023-12-20T15:02:32;34.80;;;25.15;;
58752;SDS011;44525;46.052;13.610;2023-12-20T15:04:57;32.42;;;22.65;;
58752;SDS011;44525;46.052;13.610;2023-12-20T15:07:22;25.23;;;17.23;;
58752;SDS011;44525;46.052;13.610;2023-12-20T15:09:48;29.20;;;18.15;;
58752;SDS011;44525;46.052;13.610;2023-12-20T15:12:14;34.05;;;22.70;;
58752;SDS011;44525;46.052;13.610;2023-12-20T15:14:40;35.47;;;21.20;;
58752;SDS011;44525;46.052;13.610;2023-12-20T15:17:05;42.35;;;25.42;;
58752;SDS011;44525;46.052;13.610;2023-12-20T15:19:30;40.63;;;24.48;;
58752;SDS011;44525;46.052;13.610;2023-12-20T15:21:56;38.90;;;21.75;;
58752;SDS011;44525;46.052;13.610;2023-12-20T15:24:24;32.65;;;18.67;;
58752;SDS011;44525;46.052;13.610;2023-12-20T15:26:53;38.60;;;18.33;;
58752;SDS011;44525;46.052;13.610;2023-12-20T15:29:19;40.42;;;23.80;;
58752;SDS011;44525;46.052;13.610;2023-12-20T15:31:45;42.00;;;24.48;;
58752;SDS011;44525;46.052;13.610;2023-12-20T15:34:11;37.97;;;20.00;;
58752;SDS011;44525;46.052;13.610;2023-12-20T15:36:37;78.75;;;42.63;;
58752;SDS011;44525;46.052;13.610;2023-12-20T15:39:04;85.10;;;46.88;;
58752;SDS011;44525;46.052;13.610;2023-12-20T15:41:29;78.13;;;46.22;;
58752;SDS011;44525;46.052;13.610;2023-12-20T15:43:55;78.97;;;46.70;;
58752;SDS011;44525;46.052;13.610;2023-12-20T15:46:23;58.35;;;35.30;;
58752;SDS011;44525;46.052;13.610;2023-12-20T15:48:48;57.40;;;34.42;;
58752;SDS011;44525;46.052;13.610;2023-12-20T15:51:14;62.88;;;38.03;;
58752;SDS011;44525;46.052;13.610;2023-12-20T15:53:40;58.70;;;34.33;;
58752;SDS011;44525;46.052;13.610;2023-12-20T15:56:05;47.05;;;26.80;;
58752;SDS011;44525;46.052;13.610;2023-12-20T15:58:31;40.33;;;25.23;;
58752;SDS011;44525;46.052;13.610;2023-12-20T16:00:58;39.17;;;24.30;;
58752;SDS011;44525;46.052;13.610;2023-12-20T16:03:24;43.70;;;28.70;;
58752;SDS011;44525;46.052;13.610;2023-12-20T16:05:50;39.65;;;27.17;;
58752;SDS011;44525;46.052;13.610;2023-12-20T16:08:15;42.85;;;27.02;;
58752;SDS011;44525;46.052;13.610;2023-12-20T16:10:40;49.10;;;32.67;;
58752;SDS011;44525;46.052;13.610;2023-12-20T16:13:06;54.85;;;35.00;;
58752;SDS011;44525;46.052;13.610;2023-12-20T16:15:31;66.05;;;39.92;;
58752;SDS011;44525;46.052;13.610;2023-12-20T16:17:57;58.30;;;40.33;;
58752;SDS011;44525;46.052;13.610;2023-12-20T16:20:23;56.38;;;35.92;;
58752;SDS011;44525;46.052;13.610;2023-12-20T16:22:49;42.53;;;24.13;;
58752;SDS011;44525;46.052;13.610;2023-12-20T16:25:14;37.40;;;23.38;;
58752;SDS011;44525;46.052;13.610;2023-12-20T16:27:40;33.58;;;21.10;;
58752;SDS011;44525;46.052;13.610;2023-12-20T16:30:05;45.85;;;26.05;;
58752;SDS011;44525;46.052;13.610;2023-12-20T16:32:31;43.17;;;25.48;;
58752;SDS011;44525;46.052;13.610;2023-12-20T16:34:57;53.95;;;31.67;;
58752;SDS011;44525;46.052;13.610;2023-12-20T16:37:23;67.68;;;39.90;;
58752;SDS011;44525;46.052;13.610;2023-12-20T16:39:49;63.22;;;35.47;;
58752;SDS011;44525;46.052;13.610;2023-12-20T16:42:14;70.40;;;39.28;;
58752;SDS011;44525;46.052;13.610;2023-12-20T16:44:40;76.45;;;39.65;;
58752;SDS011;44525;46.052;13.610;2023-12-20T16:47:05;82.30;;;42.28;;
58752;SDS011;44525;46.052;13.610;2023-12-20T16:49:31;80.13;;;42.47;;
58752;SDS011;44525;46.052;13.610;2023-12-20T16:51:56;76.78;;;36.65;;
58752;SDS011;44525;46.052;13.610;2023-12-20T16:54:21;55.78;;;30.52;;
58752;SDS011;44525;46.052;13.610;2023-12-20T16:56:47;60.90;;;33.45;;
58752;SDS011;44525;46.052;13.610;2023-12-20T16:59:12;68.78;;;33.88;;
58752;SDS011;44525;46.052;13.610;2023-12-20T17:01:38;72.47;;;36.53;;
58752;SDS011;44525;46.052;13.610;2023-12-20T17:04:05;76.50;;;40.30;;
58752;SDS011;44525;46.052;13.610;2023-12-20T17:06:31;42.72;;;24.10;;
58752;SDS011;44525;46.052;13.610;2023-12-20T17:08:57;33.08;;;21.23;;
58752;SDS011;44525;46.052;13.610;2023-12-20T17:11:22;26.60;;;17.50;;
58752;SDS011;44525;46.052;13.610;2023-12-20T17:13:47;27.38;;;18.63;;
58752;SDS011;44525;46.052;13.610;2023-12-20T17:16:13;31.73;;;20.63;;
58752;SDS011;44525;46.052;13.610;2023-12-20T17:18:38;28.30;;;15.95;;
58752;SDS011;44525;46.052;13.610;2023-12-20T17:21:04;29.00;;;18.08;;
58752;SDS011;44525;46.052;13.610;2023-12-20T17:23:31;27.52;;;18.05;;
58752;SDS011;44525;46.052;13.610;2023-12-20T17:25:56;31.02;;;19.40;;
58752;SDS011;44525;46.052;13.610;2023-12-20T17:28:21;123.53;;;54.50;;
58752;SDS011;44525;46.052;13.610;2023-12-20T17:30:47;42.70;;;23.90;;
58752;SDS011;44525;46.052;13.610;2023-12-20T17:33:12;43.42;;;26.08;;
58752;SDS011;44525;46.052;13.610;2023-12-20T17:35:38;41.53;;;22.95;;
58752;SDS011;44525;46.052;13.610;2023-12-20T17:38:03;28.98;;;16.13;;
58752;SDS011;44525;46.052;13.610;2023-12-20T17:40:29;29.67;;;17.27;;
58752;SDS011;44525;46.052;13.610;2023-12-20T17:42:54;30.98;;;19.35;;
58752;SDS011;44525;46.052;13.610;2023-12-20T17:45:21;34.63;;;19.98;;
58752;SDS011;44525;46.052;13.610;2023-12-20T17:47:46;41.00;;;21.80;;
58752;SDS011;44525;46.052;13.610;2023-12-20T17:50:12;53.95;;;28.10;;
58752;SDS011;44525;46.052;13.610;2023-12-20T17:52:38;40.42;;;22.95;;
58752;SDS011;44525;46.052;13.610;2023-12-20T17:55:04;31.75;;;19.40;;
58752;SDS011;44525;46.052;13.610;2023-12-20T17:57:29;30.45;;;17.02;;
58752;SDS011;44525;46.052;13.610;2023-12-20T17:59:54;36.70;;;21.30;;
58752;SDS011;44525;46.052;13.610;2023-12-20T18:02:20;40.72;;;23.52;;
58752;SDS011;44525;46.052;13.610;2023-12-20T18:04:45;47.80;;;25.38;;
58752;SDS011;44525;46.052;13.610;2023-12-20T18:07:11;63.35;;;33.90;;
58752;SDS011;44525;46.052;13.610;2023-12-20T18:09:37;72.10;;;38.40;;
58752;SDS011;44525;46.052;13.610;2023-12-20T18:12:02;84.93;;;43.63;;
58752;SDS011;44525;46.052;13.610;2023-12-20T18:14:28;88.50;;;44.28;;
58752;SDS011;44525;46.052;13.610;2023-12-20T18:16:55;86.00;;;45.15;;
58752;SDS011;44525;46.052;13.610;2023-12-20T18:19:20;79.65;;;42.20;;
58752;SDS011;44525;46.052;13.610;2023-12-20T18:21:46;77.68;;;41.95;;
58752;SDS011;44525;46.052;13.610;2023-12-20T18:24:11;80.57;;;42.75;;
58752;SDS011;44525;46.052;13.610;2023-12-20T18:26:37;71.13;;;39.95;;
58752;SDS011;44525;46.052;13.610;2023-12-20T18:29:03;65.35;;;36.25;;
58752;SDS011;44525;46.052;13.610;2023-12-20T18:31:32;117.55;;;56.55;;
58752;SDS011;44525;46.052;13.610;2023-12-20T18:33:57;80.90;;;39.10;;
58752;SDS011;44525;46.052;13.610;2023-12-20T18:36:22;52.60;;;29.70;;
58752;SDS011;44525;46.052;13.610;2023-12-20T18:38:48;78.65;;;38.92;;
58752;SDS011;44525;46.052;13.610;2023-12-20T18:41:13;80.55;;;41.30;;
58752;SDS011;44525;46.052;13.610;2023-12-20T18:43:40;106.20;;;49.38;;
58752;SDS011;44525;46.052;13.610;2023-12-20T18:46:05;87.22;;;41.35;;
58752;SDS011;44525;46.052;13.610;2023-12-20T18:48:31;65.18;;;34.03;;
58752;SDS011;44525;46.052;13.610;2023-12-20T18:50:59;99.18;;;45.78;;
58752;SDS011;44525;46.052;13.610;2023-12-20T18:53:25;74.28;;;37.58;;
58752;SDS011;44525;46.052;13.610;2023-12-20T18:55:50;81.45;;;39.13;;
58752;SDS011;44525;46.052;13.610;2023-12-20T18:58:16;72.47;;;38.90;;
58752;SDS011;44525;46.052;13.610;2023-12-20T19:00:41;69.90;;;39.15;;
58752;SDS011;44525;46.052;13.610;2023-12-20T19:03:06;86.47;;;42.00;;
58752;SDS011;44525;46.052;13.610;2023-12-20T19:05:36;52.80;;;29.67;;
58752;SDS011;44525;46.052;13.610;2023-12-20T19:08:01;53.72;;;31.38;;
58752;SDS011;44525;46.052;13.610;2023-12-20T19:10:27;46.50;;;26.98;;
58752;SDS011;44525;46.052;13.610;2023-12-20T19:12:52;70.05;;;34.53;;
58752;SDS011;44525;46.052;13.610;2023-12-20T19:15:18;72.25;;;37.33;;
58752;SDS011;44525;46.052;13.610;2023-12-20T19:17:43;106.35;;;49.47;;
58752;SDS011;44525;46.052;13.610;2023-12-20T19:20:09;90.20;;;45.78;;
58752;SDS011;44525;46.052;13.610;2023-12-20T19:22:34;94.07;;;47.72;;
58752;SDS011;44525;46.052;13.610;2023-12-20T19:25:00;120.35;;;60.03;;
58752;SDS011;44525;46.052;13.610;2023-12-20T19:27:33;94.90;;;45.08;;
58752;SDS011;44525;46.052;13.610;2023-12-20T19:29:59;62.67;;;35.45;;
58752;SDS011;44525;46.052;13.610;2023-12-20T19:32:25;64.47;;;36.05;;
58752;SDS011;44525;46.052;13.610;2023-12-20T19:34:51;54.65;;;30.48;;
58752;SDS011;44525;46.052;13.610;2023-12-20T19:37:17;71.03;;;38.95;;
58752;SDS011;44525;46.052;13.610;2023-12-20T19:39:43;61.78;;;34.83;;
58752;SDS011;44525;46.052;13.610;2023-12-20T19:42:08;57.53;;;32.47;;
58752;SDS011;44525;46.052;13.610;2023-12-20T19:44:34;39.63;;;24.35;;
58752;SDS011;44525;46.052;13.610;2023-12-20T19:46:59;52.10;;;31.55;;
58752;SDS011;44525;46.052;13.610;2023-12-20T19:49:24;40.38;;;23.88;;
58752;SDS011;44525;46.052;13.610;2023-12-20T19:51:50;44.45;;;24.60;;
58752;SDS011;44525;46.052;13.610;2023-12-20T19:54:15;44.67;;;26.02;;
58752;SDS011;44525;46.052;13.610;2023-12-20T19:56:41;54.15;;;30.38;;
58752;SDS011;44525;46.052;13.610;2023-12-20T19:59:06;49.50;;;26.65;;
58752;SDS011;44525;46.052;13.610;2023-12-20T20:01:31;51.35;;;28.05;;
58752;SDS011;44525;46.052;13.610;2023-12-20T20:03:59;41.70;;;25.30;;
58752;SDS011;44525;46.052;13.610;2023-12-20T20:06:25;59.80;;;31.63;;
58752;SDS011;44525;46.052;13.610;2023-12-20T20:08:50;57.65;;;32.70;;
58752;SDS011;44525;46.052;13.610;2023-12-20T20:11:16;58.95;;;33.00;;
58752;SDS011;44525;46.052;13.610;2023-12-20T20:13:41;51.70;;;30.95;;
58752;SDS011;44525;46.052;13.610;2023-12-20T20:16:07;50.10;;;28.58;;
58752;SDS011;44525;46.052;13.610;2023-12-20T20:18:32;39.05;;;24.08;;
58752;SDS011;44525;46.052;13.610;2023-12-20T20:20:58;42.08;;;25.17;;
58752;SDS011;44525;46.052;13.610;2023-12-20T20:23:23;42.17;;;24.63;;
58752;SDS011;44525;46.052;13.610;2023-12-20T20:25:48;64.38;;;35.95;;
58752;SDS011;44525;46.052;13.610;2023-12-20T20:28:14;55.90;;;32.40;;
58752;SDS011;44525;46.052;13.610;2023-12-20T20:30:41;57.88;;;29.80;;
58752;SDS011;44525;46.052;13.610;2023-12-20T20:33:06;42.03;;;28.13;;
58752;SDS011;44525;46.052;13.610;2023-12-20T20:35:32;42.17;;;25.33;;
58752;SDS011;44525;46.052;13.610;2023-12-20T20:37:57;37.55;;;22.80;;
58752;SDS011;44525;46.052;13.610;2023-12-20T20:40:22;32.78;;;19.42;;
58752;SDS011;44525;46.052;13.610;2023-12-20T20:42:48;35.17;;;21.95;;
58752;SDS011;44525;46.052;13.610;2023-12-20T20:45:13;48.58;;;25.60;;
58752;SDS011;44525;46.052;13.610;2023-12-20T20:47:40;42.00;;;25.55;;
58752;SDS011;44525;46.052;13.610;2023-12-20T20:50:06;49.30;;;28.30;;
58752;SDS011;44525;46.052;13.610;2023-12-20T20:52:33;55.67;;;29.42;;
58752;SDS011;44525;46.052;13.610;2023-12-20T20:54:58;59.38;;;30.23;;
58752;SDS011;44525;46.052;13.610;2023-12-20T20:57:24;66.30;;;32.00;;
58752;SDS011;44525;46.052;13.610;2023-12-20T20:59:50;41.88;;;23.10;;
58752;SDS011;44525;46.052;13.610;2023-12-20T21:02:15;47.53;;;24.90;;
58752;SDS011;44525;46.052;13.610;2023-12-20T21:04:41;53.38;;;26.98;;
58752;SDS011;44525;46.052;13.610;2023-12-20T21:07:06;63.22;;;30.23;;
58752;SDS011;44525;46.052;13.610;2023-12-20T21:09:32;81.32;;;38.30;;
58752;SDS011;44525;46.052;13.610;2023-12-20T21:11:57;56.70;;;29.02;;
58752;SDS011;44525;46.052;13.610;2023-12-20T21:14:22;70.47;;;33.60;;
58752;SDS011;44525;46.052;13.610;2023-12-20T21:16:48;59.90;;;30.92;;
58752;SDS011;44525;46.052;13.610;2023-12-20T21:19:13;68.55;;;32.60;;
58752;SDS011;44525;46.052;13.610;2023-12-20T21:21:39;65.97;;;31.35;;
58752;SDS011;44525;46.052;13.610;2023-12-20T21:24:04;69.72;;;33.83;;
58752;SDS011;44525;46.052;13.610;2023-12-20T21:26:30;61.70;;;31.23;;
58752;SDS011;44525;46.052;13.610;2023-12-20T21:28:55;64.50;;;33.38;;
58752;SDS011;44525;46.052;13.610;2023-12-20T21:31:21;58.55;;;31.13;;
58752;SDS011;44525;46.052;13.610;2023-12-20T21:33:47;61.13;;;32.40;;
58752;SDS011;44525;46.052;13.610;2023-12-20T21:36:12;60.42;;;30.33;;
58752;SDS011;44525;46.052;13.610;2023-12-20T21:38:41;60.33;;;30.63;;
58752;SDS011;44525;46.052;13.610;2023-12-20T21:41:07;48.13;;;26.10;;
58752;SDS011;44525;46.052;13.610;2023-12-20T21:43:32;51.15;;;26.02;;
58752;SDS011;44525;46.052;13.610;2023-12-20T21:45:58;46.72;;;25.35;;
58752;SDS011;44525;46.052;13.610;2023-12-20T21:48:23;50.10;;;24.17;;
58752;SDS011;44525;46.052;13.610;2023-12-20T21:50:50;39.13;;;21.77;;
58752;SDS011;44525;46.052;13.610;2023-12-20T21:53:15;42.58;;;22.73;;
58752;SDS011;44525;46.052;13.610;2023-12-20T21:55:41;42.20;;;23.38;;
58752;SDS011;44525;46.052;13.610;2023-12-20T21:58:07;42.33;;;23.92;;
58752;SDS011;44525;46.052;13.610;2023-12-20T22:00:33;43.92;;;24.73;;
58752;SDS011;44525;46.052;13.610;2023-12-20T22:02:59;38.78;;;23.90;;
58752;SDS011;44525;46.052;13.610;2023-12-20T22:05:25;43.47;;;23.67;;
58752;SDS011;44525;46.052;13.610;2023-12-20T22:07:51;41.08;;;21.73;;
58752;SDS011;44525;46.052;13.610;2023-12-20T22:10:16;43.03;;;23.27;;
58752;SDS011;44525;46.052;13.610;2023-12-20T22:12:42;39.13;;;21.95;;
58752;SDS011;44525;46.052;13.610;2023-12-20T22:15:08;40.70;;;21.70;;
58752;SDS011;44525;46.052;13.610;2023-12-20T22:17:34;34.92;;;21.35;;
58752;SDS011;44525;46.052;13.610;2023-12-20T22:19:59;41.67;;;20.33;;
58752;SDS011;44525;46.052;13.610;2023-12-20T22:22:25;40.03;;;22.52;;
58752;SDS011;44525;46.052;13.610;2023-12-20T22:24:51;40.30;;;23.40;;
58752;SDS011;44525;46.052;13.610;2023-12-20T22:27:16;33.85;;;20.27;;
58752;SDS011;44525;46.052;13.610;2023-12-20T22:29:42;37.30;;;19.98;;
58752;SDS011;44525;46.052;13.610;2023-12-20T22:32:07;36.00;;;19.70;;
58752;SDS011;44525;46.052;13.610;2023-12-20T22:34:33;36.45;;;19.85;;
58752;SDS011;44525;46.052;13.610;2023-12-20T22:37:00;36.92;;;19.63;;
58752;SDS011;44525;46.052;13.610;2023-12-20T22:39:26;34.85;;;19.90;;
58752;SDS011;44525;46.052;13.610;2023-12-20T22:41:51;30.35;;;19.75;;
58752;SDS011;44525;46.052;13.610;2023-12-20T22:44:17;34.55;;;18.77;;
58752;SDS011;44525;46.052;13.610;2023-12-20T22:46:42;34.75;;;20.08;;
58752;SDS011;44525;46.052;13.610;2023-12-20T22:49:08;35.80;;;19.88;;
58752;SDS011;44525;46.052;13.610;2023-12-20T22:51:34;40.40;;;20.27;;
58752;SDS011;44525;46.052;13.610;2023-12-20T22:54:02;32.10;;;19.20;;
58752;SDS011;44525;46.052;13.610;2023-12-20T22:56:28;38.80;;;20.15;;
58752;SDS011;44525;46.052;13.610;2023-12-20T22:58:53;44.45;;;24.65;;
58752;SDS011;44525;46.052;13.610;2023-12-20T23:01:19;48.13;;;25.60;;
58752;SDS011;44525;46.052;13.610;2023-12-20T23:03:45;52.78;;;26.88;;
58752;SDS011;44525;46.052;13.610;2023-12-20T23:06:11;61.75;;;31.08;;
58752;SDS011;44525;46.052;13.610;2023-12-20T23:08:36;59.65;;;30.58;;
58752;SDS011;44525;46.052;13.610;2023-12-20T23:11:02;49.70;;;26.05;;
58752;SDS011;44525;46.052;13.610;2023-12-20T23:13:27;49.38;;;26.00;;
58752;SDS011;44525;46.052;13.610;2023-12-20T23:15:53;43.05;;;23.55;;
58752;SDS011;44525;46.052;13.610;2023-12-20T23:18:18;44.63;;;22.20;;
58752;SDS011;44525;46.052;13.610;2023-12-20T23:20:44;34.85;;;18.20;;
58752;SDS011;44525;46.052;13.610;2023-12-20T23:23:11;29.83;;;14.65;;
58752;SDS011;44525;46.052;13.610;2023-12-20T23:25:36;42.22;;;21.98;;
58752;SDS011;44525;46.052;13.610;2023-12-20T23:28:02;37.00;;;21.15;;
58752;SDS011;44525;46.052;13.610;2023-12-20T23:30:28;44.25;;;21.00;;
58752;SDS011;44525;46.052;13.610;2023-12-20T23:32:53;31.92;;;15.00;;
58752;SDS011;44525;46.052;13.610;2023-12-20T23:35:19;32.85;;;16.50;;
58752;SDS011;44525;46.052;13.610;2023-12-20T23:37:44;20.38;;;13.32;;
58752;SDS011;44525;46.052;13.610;2023-12-20T23:40:10;21.52;;;12.20;;
58752;SDS011;44525;46.052;13.610;2023-12-20T23:42:35;27.45;;;14.98;;
58752;SDS011;44525;46.052;13.610;2023-12-20T23:45:01;29.17;;;16.40;;
58752;SDS011;44525;46.052;13.610;2023-12-20T23:47:26;27.83;;;16.85;;
58752;SDS011;44525;46.052;13.610;2023-12-20T23:49:52;34.40;;;16.20;;
58752;SDS011;44525;46.052;13.610;2023-12-20T23:52:17;31.23;;;16.33;;
58752;SDS011;44525;46.052;13.610;2023-12-20T23:54:43;28.33;;;16.08;;
58752;SDS011;44525;46.052;13.610;2023-12-20T23:57:08;30.70;;;16.80;;
58752;SDS011;44525;46.052;13.610;2023-12-20T23:59:34;28.20;;;15.30;;
